Time;durP1;ratioP1;P1;durP2;ratioP2;P2;SDS_P1;SDS_P2;PMS_P1;PMS_P2;Temp;Humidity;BMP_temperature;BMP_pressure;BME280_temperature;BME280_humidity;BME280_pressure;Samples;Min_cycle;Max_cycle;Signal;HPM_P1;HPM_P2
2022/05/12 00:03:17;;;;;;;;;;;;;;;;;;;;;
2022/05/12 00:06:06;;;;;;;5.00;1.70;;;15.30;88.70;;;;;;6194974;23;20032;-91
2022/05/12 00:08:55;;;;;;;2.65;1.08;;;15.20;88.80;;;;;;6189458;23;20415;-89
2022/05/12 00:11:37;;;;;;;4.47;1.20;;;15.10;88.80;;;;;;6163627;23;20009;-90
2022/05/12 00:14:14;;;;;;;6.05;1.20;;;15.10;88.90;;;;;;6163192;23;20481;-91
2022/05/12 00:17:04;;;;;;;2.90;1.20;;;15.10;88.80;;;;;;6162585;23;20005;-90
2022/05/12 00:23:11;;;;;;;3.85;0.90;;;15.00;88.40;;;;;;6181153;23;20013;-92
2022/05/12 00:28:53;;;;;;;3.30;1.13;;;14.90;88.50;;;;;;6182206;23;20012;-90
2022/05/12 00:31:43;;;;;;;5.18;1.17;;;14.90;88.60;;;;;;6147177;23;20019;-91
2022/05/12 00:34:50;;;;;;;3.08;1.05;;;14.90;88.60;;;;;;6158199;23;19998;-89
2022/05/12 00:40:33;;;;;;;3.60;0.90;;;14.70;88.60;;;;;;6161642;23;20009;-90
2022/05/12 00:43:38;;;;;;;3.72;1.25;;;14.70;88.60;;;;;;6214643;23;19997;-91
2022/05/12 00:46:49;;;;;;;3.40;1.25;;;14.70;88.70;;;;;;6216572;23;20076;-90
2022/05/12 00:49:46;;;;;;;4.32;1.20;;;14.60;88.70;;;;;;6160177;23;20028;-90
2022/05/12 00:52:35;;;;;;;3.28;1.02;;;14.50;88.80;;;;;;6220082;23;20008;-90
2022/05/12 00:55:25;;;;;;;;;;;;;;;;;;;;;
2022/05/12 00:58:26;;;;;;;3.83;1.05;;;14.50;89.20;;;;;;6219845;23;20053;-92
2022/05/12 01:01:21;;;;;;;3.35;1.05;;;14.40;89.20;;;;;;6219306;23;20004;-92
2022/05/12 01:04:15;;;;;;;4.80;1.42;;;14.40;89.10;;;;;;6218348;23;20358;-91
2022/05/12 01:07:11;;;;;;;;;;;;;;;;;;;;;
2022/05/12 01:09:58;;;;;;;3.67;1.08;;;14.40;89.30;;;;;;6218314;23;20475;-91
2022/05/12 01:12:25;;;;;;;3.50;1.15;;;14.30;89.40;;;;;;6217990;23;20001;-91
2022/05/12 01:15:02;;;;;;;5.47;1.58;;;14.30;89.40;;;;;;6216229;23;20000;-90
2022/05/12 01:17:54;;;;;;;;;;;;;;;;;;;;;
2022/05/12 01:20:28;;;;;;;3.47;1.10;;;14.20;89.60;;;;;;6219297;23;20097;-92
2022/05/12 01:23:40;;;;;;;;;;;;;;;;;;;;;
2022/05/12 01:26:38;;;;;;;;;;;;;;;;;;;;;
2022/05/12 01:29:34;;;;;;;5.43;1.40;;;14.10;90.00;;;;;;6198169;23;20073;-91
2022/05/12 01:32:10;;;;;;;4.63;1.30;;;14.00;90.10;;;;;;6217743;23;20423;-90
2022/05/12 01:35:22;;;;;;;;;;;;;;;;;;;;;
2022/05/12 01:38:04;;;;;;;5.90;1.23;;;13.90;90.20;;;;;;6219186;23;20352;-91
2022/05/12 01:40:54;;;;;;;;;;;;;;;;;;;;;
2022/05/12 01:44:07;;;;;;;;;;;;;;;;;;;;;
2022/05/12 01:47:03;;;;;;;;;;;;;;;;;;;;;
2022/05/12 01:49:47;;;;;;;5.47;1.40;;;13.80;90.30;;;;;;6217809;23;20075;-92
2022/05/12 01:52:44;;;;;;;3.33;1.27;;;13.80;90.40;;;;;;6194276;23;20008;-90
2022/05/12 02:02:00;;;;;;;2.80;1.27;;;13.60;90.50;;;;;;6207704;23;20012;-91
2022/05/12 02:04:34;;;;;;;7.30;1.67;;;13.60;90.60;;;;;;6218700;23;20021;-90
2022/05/12 02:10:45;;;;;;;4.25;1.52;;;13.60;90.70;;;;;;6198734;23;20024;-90
2022/05/12 02:14:10;;;;;;;;;;;;;;;;;;;;;
2022/05/12 02:16:37;;;;;;;;;;;;;;;;;;;;;
2022/05/12 02:22:32;;;;;;;5.13;1.60;;;13.50;90.70;;;;;;6213045;23;20411;-92
2022/05/12 02:25:03;;;;;;;;;;;13.40;90.80;;;;;;6198972;23;20055;-91
2022/05/12 02:27:44;;;;;;;3.47;1.42;;;13.40;90.80;;;;;;6218146;23;20294;-90
2022/05/12 02:30:21;;;;;;;;;;;;;;;;;;;;;
2022/05/12 02:33:29;;;;;;;2.80;1.55;;;13.30;90.80;;;;;;6239965;23;19983;-90
2022/05/12 02:36:38;;;;;;;3.55;1.60;;;13.30;90.90;;;;;;6213084;23;20007;-90
2022/05/12 02:39:17;;;;;;;;;;;;;;;;;;;;;
2022/05/12 02:45:34;;;;;;;2.55;1.60;;;13.30;91.00;;;;;;6219533;23;20028;-92
2022/05/12 02:48:22;;;;;;;6.20;2.17;;;13.20;91.10;;;;;;6208021;23;20008;-91
2022/05/12 02:50:50;;;;;;;4.22;1.98;;;13.20;91.10;;;;;;6205251;23;20068;-91
2022/05/12 02:53:25;;;;;;;6.13;2.17;;;13.20;91.10;;;;;;6224671;23;20071;-92
2022/05/12 02:55:59;;;;;;;6.82;2.40;;;13.20;91.10;;;;;;6221248;23;20003;-91
2022/05/12 02:58:27;;;;;;;3.47;1.90;;;13.20;91.20;;;;;;6223118;23;20410;-93
2022/05/12 03:01:11;;;;;;;7.70;2.65;;;13.10;91.20;;;;;;6254208;23;19995;-91
2022/05/12 03:03:37;;;;;;;4.35;2.30;;;13.10;91.20;;;;;;6225631;23;19996;-91
2022/05/12 03:06:09;;;;;;;6.45;2.35;;;13.10;91.30;;;;;;6251024;23;20359;-93
2022/05/12 03:08:47;;;;;;;;;;;;;;;;;;;;;
2022/05/12 03:11:20;;;;;;;2.72;1.63;;;13.10;91.40;;;;;;6249693;23;20012;-93
2022/05/12 03:14:04;;;;;;;;;;;;;;;;;;;;;
2022/05/12 03:16:30;;;;;;;5.15;2.55;;;13.00;91.50;;;;;;6250193;23;20023;-92
2022/05/12 03:19:01;;;;;;;8.50;2.92;;;13.00;91.50;;;;;;6223561;23;19992;-91
2022/05/12 03:21:27;;;;;;;5.05;2.67;;;13.00;91.80;;;;;;6226078;23;19996;-92
2022/05/12 03:24:09;;;;;;;;;;;;;;;;;;;;;
2022/05/12 03:26:46;;;;;;;5.38;2.40;;;12.90;91.60;;;;;;6248276;23;20080;-91
2022/05/12 03:29:42;;;;;;;;;;;;;;;;;;;;;
2022/05/12 03:32:12;;;;;;;6.00;2.70;;;12.80;91.70;;;;;;6254280;23;20094;-90
2022/05/12 03:34:49;;;;;;;3.92;2.40;;;12.80;91.70;;;;;;6251532;23;20000;-93
2022/05/12 03:46:48;;;;;;;;;;;12.70;91.90;;;;;;6226179;23;20449;-92
2022/05/12 03:49:14;;;;;;;3.97;2.80;;;12.70;91.80;;;;;;6222740;23;19902;-92
2022/05/12 03:52:08;;;;;;;5.30;3.13;;;12.70;91.90;;;;;;6239137;23;19984;-93
2022/05/12 03:55:07;;;;;;;6.25;2.92;;;12.70;91.90;;;;;;6223541;22;20048;-93
2022/05/12 03:58:04;;;;;;;6.75;3.25;;;12.60;92.00;;;;;;6227539;22;19999;-91
2022/05/12 04:00:43;;;;;;;;;;;;;;;;;;;;;
2022/05/12 04:03:27;;;;;;;4.32;2.90;;;12.60;92.00;;;;;;6249952;23;20075;-92
2022/05/12 04:06:00;;;;;;;4.88;2.53;;;12.60;92.10;;;;;;6221972;23;19992;-90
2022/05/12 04:08:35;;;;;;;4.18;2.33;;;12.60;92.10;;;;;;6221062;23;20425;-91
2022/05/12 04:11:11;;;;;;;;;;;;;;;;;;;;;
2022/05/12 04:13:44;;;;;;;4.30;2.63;;;12.70;92.20;;;;;;6246639;23;20510;-91
2022/05/12 04:16:20;;;;;;;3.72;2.20;;;12.70;92.20;;;;;;6196214;23;20107;-92
2022/05/12 04:18:49;;;;;;;2.75;2.03;;;12.70;92.20;;;;;;6195735;23;20004;-91
2022/05/12 04:21:16;;;;;;;6.68;2.50;;;12.70;92.30;;;;;;6219946;23;20004;-90
2022/05/12 04:23:46;;;;;;;3.53;2.00;;;12.80;92.30;;;;;;6222318;23;20015;-91
2022/05/12 04:26:14;;;;;;;3.85;1.85;;;12.80;92.30;;;;;;6197179;23;20023;-90
2022/05/12 04:28:40;;;;;;;4.80;2.00;;;12.70;92.30;;;;;;6222318;23;20437;-92
2022/05/12 04:31:06;;;;;;;3.90;2.10;;;12.70;92.40;;;;;;6222093;23;20000;-89
2022/05/12 04:36:18;;;;;;;3.08;1.92;;;12.80;92.40;;;;;;6249486;23;20294;-90
2022/05/12 04:39:17;;;;;;;;;;;;;;;;;;;;;
2022/05/12 04:41:50;;;;;;;4.10;2.00;;;12.80;92.50;;;;;;6232960;23;20039;-95
2022/05/12 04:44:17;;;;;;;4.05;2.10;;;12.80;92.50;;;;;;6201360;23;20003;-92
2022/05/12 04:46:43;;;;;;;3.17;1.85;;;12.80;92.50;;;;;;6222589;23;20023;-89
2022/05/12 04:49:13;;;;;;;5.53;2.00;;;12.80;92.50;;;;;;6223145;23;19996;-91
2022/05/12 04:51:39;;;;;;;2.92;1.73;;;12.90;92.60;;;;;;6222138;23;19992;-89
2022/05/12 04:54:13;;;;;;;4.68;2.08;;;12.90;92.60;;;;;;6222448;23;19996;-88
2022/05/12 04:56:41;;;;;;;4.50;2.10;;;13.00;92.60;;;;;;6248867;23;19996;-88
2022/05/12 04:59:08;;;;;;;5.43;1.92;;;12.90;92.60;;;;;;6221597;23;20004;-89
2022/05/12 05:01:35;;;;;;;6.85;2.30;;;13.00;92.70;;;;;;6196953;23;20090;-90
2022/05/12 05:04:11;;;;;;;3.38;2.10;;;13.00;92.70;;;;;;6221821;23;20045;-89
2022/05/12 05:06:39;;;;;;;4.57;2.50;;;13.00;92.70;;;;;;6221856;23;20000;-90
2022/05/12 05:09:16;;;;;;;4.68;2.40;;;13.00;92.70;;;;;;6221813;23;20000;-93
2022/05/12 05:11:54;;;;;;;6.30;1.88;;;13.10;93.00;;;;;;6197553;23;20004;-91
2022/05/12 05:14:22;;;;;;;5.05;2.30;;;13.10;92.80;;;;;;6198644;23;20028;-94
2022/05/12 05:16:53;;;;;;;5.10;2.60;;;13.10;92.80;;;;;;6221657;23;19996;-91
2022/05/12 05:19:21;;;;;;;4.57;2.15;;;13.10;92.80;;;;;;6197315;23;20003;-88
2022/05/12 05:21:50;;;;;;;6.22;2.40;;;13.20;92.80;;;;;;6221059;23;20007;-88
2022/05/12 05:24:24;;;;;;;5.80;2.10;;;13.20;92.80;;;;;;6223636;23;19996;-91
2022/05/12 05:26:52;;;;;;;3.92;2.40;;;13.20;92.80;;;;;;6201426;23;20023;-93
2022/05/12 05:29:21;;;;;;;3.30;2.25;;;13.30;92.90;;;;;;6227083;23;20024;-94
2022/05/12 05:31:57;;;;;;;6.07;2.65;;;13.30;92.80;;;;;;6232554;23;20008;-91
2022/05/12 05:34:35;;;;;;;;;;;;;;;;;;;;;
2022/05/12 05:37:24;;;;;;;5.70;2.50;;;13.40;92.80;;;;;;6273738;22;20000;-93
2022/05/12 05:40:01;;;;;;;6.68;2.67;;;13.40;92.90;;;;;;6201805;22;20079;-93
2022/05/12 05:45:41;;;;;;;4.85;2.67;;;13.50;92.90;;;;;;6252305;23;20000;-94
2022/05/12 05:48:20;;;;;;;5.03;2.92;;;13.50;92.90;;;;;;6234690;23;20003;-93
2022/05/12 05:53:41;;;;;;;4.78;2.85;;;13.60;92.90;;;;;;6249173;23;20057;-92
2022/05/12 05:56:15;;;;;;;5.13;2.75;;;13.70;92.90;;;;;;6221314;23;20043;-94
2022/05/12 05:59:16;;;;;;;8.60;3.88;;;13.70;92.90;;;;;;6222432;23;20075;-92
2022/05/12 06:01:49;;;;;;;4.77;2.90;;;13.70;92.90;;;;;;6221747;23;20019;-92
2022/05/12 06:04:17;;;;;;;5.90;2.88;;;13.80;92.90;;;;;;6221992;23;20018;-92
2022/05/12 06:07:09;;;;;;;6.35;2.72;;;13.80;93.10;;;;;;6221997;23;20007;-93
2022/05/12 06:09:50;;;;;;;5.65;2.85;;;13.90;92.90;;;;;;6222390;23;20001;-94
2022/05/12 06:12:26;;;;;;;7.43;3.25;;;13.90;92.90;;;;;;6221927;23;20367;-91
2022/05/12 06:15:16;;;;;;;6.13;4.10;;;13.90;92.80;;;;;;6222578;23;20087;-92
2022/05/12 06:17:47;;;;;;;9.77;5.45;;;14.00;92.90;;;;;;6201424;23;20001;-94
2022/05/12 06:20:23;;;;;;;;;;;;;;;;;;;;;
2022/05/12 06:23:00;;;;;;;7.57;4.07;;;14.10;92.80;;;;;;6249385;23;20489;-94
2022/05/12 06:25:29;;;;;;;10.40;4.00;;;14.20;92.80;;;;;;6223212;23;20463;-92
2022/05/12 06:28:32;;;;;;;9.07;4.18;;;14.20;92.80;;;;;;6222408;23;20058;-91
2022/05/12 06:31:20;;;;;;;8.05;3.75;;;14.30;92.80;;;;;;6193254;23;20015;-93
2022/05/12 06:34:07;;;;;;;8.98;3.90;;;14.30;92.80;;;;;;6225711;23;20007;-92
2022/05/12 06:37:03;;;;;;;6.28;3.30;;;14.40;92.80;;;;;;6223638;23;20090;-92
2022/05/12 06:39:38;;;;;;;8.07;3.80;;;14.40;92.80;;;;;;6221548;23;20394;-93
2022/05/12 06:45:10;;;;;;;;;;;;;;;;;;;;;
2022/05/12 06:47:48;;;;;;;8.95;3.70;;;14.60;92.80;;;;;;6248998;23;20074;-91
2022/05/12 06:50:42;;;;;;;6.03;3.33;;;14.70;92.80;;;;;;6223075;23;19996;-93
2022/05/12 06:53:17;;;;;;;11.80;3.83;;;14.80;92.70;;;;;;6186215;23;20039;-94
2022/05/12 06:55:46;;;;;;;8.00;3.40;;;14.80;92.60;;;;;;6222604;23;20057;-92
2022/05/12 07:01:54;;;;;;;;;;;;;;;;;;;;;
2022/05/12 07:04:51;;;;;;;;;;;;;;;;;;;;;
2022/05/12 07:07:26;;;;;;;5.82;2.90;;;15.10;92.50;;;;;;6224461;23;20056;-93
2022/05/12 07:12:58;;;;;;;8.48;3.63;;;15.30;92.30;;;;;;6200205;23;20000;-93
2022/05/12 07:15:32;;;;;;;6.70;3.53;;;15.30;92.30;;;;;;6202897;23;20005;-93
2022/05/12 07:18:03;;;;;;;8.30;3.58;;;15.40;92.20;;;;;;6237675;23;20422;-92
2022/05/12 07:26:46;;;;;;;;;;;;;;;;;;;;;
2022/05/12 07:29:57;;;;;;;5.18;3.28;;;15.70;91.90;;;;;;6251736;22;19984;-91
2022/05/12 07:35:30;;;;;;;6.47;3.50;;;15.90;91.70;;;;;;6256497;23;20078;-93
2022/05/12 07:38:08;;;;;;;;;;;;;;;;;;;;;
2022/05/12 07:41:17;;;;;;;7.45;3.33;;;16.00;91.50;;;;;;6224177;23;20071;-93
2022/05/12 07:43:51;;;;;;;7.88;2.70;;;16.10;91.30;;;;;;6244104;23;20032;-93
2022/05/12 07:46:34;;;;;;;8.27;3.00;;;16.10;91.20;;;;;;6223235;23;20422;-93
2022/05/12 07:49:26;;;;;;;5.88;2.78;;;16.20;91.10;;;;;;6227632;23;20070;-92
2022/05/12 07:52:22;;;;;;;;;;;;;;;;;;;;;
2022/05/12 07:55:11;;;;;;;8.73;2.70;;;16.40;90.80;;;;;;6248705;23;20048;-93
2022/05/12 07:58:04;;;;;;;;;;;;;;;;;;;;;
2022/05/12 08:00:57;;;;;;;5.53;2.83;;;16.50;90.60;;;;;;6226991;23;20370;-93
2022/05/12 08:03:26;;;;;;;4.75;2.95;;;16.50;90.50;;;;;;6249439;23;20003;-92
2022/05/12 08:05:59;;;;;;;5.20;3.17;;;16.60;90.40;;;;;;6221792;23;19996;-92
2022/05/12 08:08:31;;;;;;;4.55;2.58;;;16.70;90.40;;;;;;6222989;23;20007;-91
2022/05/12 08:11:08;;;;;;;5.25;2.28;;;16.70;90.30;;;;;;6224152;23;20000;-92
2022/05/12 08:13:39;;;;;;;6.03;2.85;;;16.80;90.20;;;;;;6199026;23;19996;-93
2022/05/12 08:16:07;;;;;;;;;;;16.90;89.90;;;;;;6197978;23;20058;-93
2022/05/12 08:18:35;;;;;;;6.32;2.25;;;16.90;89.50;;;;;;6196054;23;19899;-93
2022/05/12 08:21:22;;;;;;;3.55;2.22;;;17.00;89.30;;;;;;6220885;23;19996;-92
2022/05/12 08:24:03;;;;;;;;;;;;;;;;;;;;;
2022/05/12 08:26:33;;;;;;;5.18;2.15;;;17.20;88.70;;;;;;6247984;23;20040;-93
2022/05/12 08:29:25;;;;;;;6.20;2.55;;;17.20;88.00;;;;;;6221090;23;20000;-92
2022/05/12 08:31:58;;;;;;;7.13;2.47;;;17.30;87.60;;;;;;6246444;23;20067;-94
2022/05/12 08:34:41;;;;;;;4.35;2.33;;;17.30;87.30;;;;;;6220868;23;20000;-93
2022/05/12 08:37:15;;;;;;;5.45;2.40;;;17.40;86.80;;;;;;6198174;23;20053;-94
2022/05/12 08:40:13;;;;;;;4.53;2.25;;;17.40;86.40;;;;;;6220891;23;20077;-95
2022/05/12 08:42:42;;;;;;;3.95;1.73;;;17.40;85.90;;;;;;6226280;23;20061;-92
2022/05/12 08:45:16;;;;;;;5.13;2.42;;;17.50;85.70;;;;;;6221442;23;19997;-95
2022/05/12 08:47:55;;;;;;;4.70;2.15;;;17.60;85.30;;;;;;6224780;23;20000;-93
2022/05/12 08:50:40;;;;;;;;;;;;;;;;;;;;;
2022/05/12 08:53:21;;;;;;;3.05;1.90;;;17.60;83.70;;;;;;6247226;23;20080;-94
2022/05/12 08:55:52;;;;;;;;;;;17.60;83.00;;;;;;6221515;23;20079;-94
2022/05/12 08:58:59;;;;;;;4.47;2.20;;;17.60;82.80;;;;;;6221473;23;19895;-95
2022/05/12 09:02:00;;;;;;;5.28;2.10;;;17.50;82.70;;;;;;6221288;23;20003;-92
2022/05/12 09:05:05;;;;;;;4.10;1.80;;;17.60;81.70;;;;;;6221031;23;20410;-93
2022/05/12 09:10:38;;;;;;;3.10;1.55;;;17.70;81.40;;;;;;6251593;23;20007;-91
2022/05/12 09:13:59;;;;;;;3.63;1.98;;;17.80;81.30;;;;;;6226589;23;20310;-94
2022/05/12 09:16:47;;;;;;;2.47;1.30;;;17.90;80.80;;;;;;6257330;23;20000;-93
2022/05/12 09:19:19;;;;;;;;;;;18.00;80.70;;;;;;6249805;23;20007;-93
2022/05/12 09:21:49;;;;;;;2.97;1.30;;;18.10;80.50;;;;;;6245777;23;19908;-92
2022/05/12 09:24:34;;;;;;;3.33;1.50;;;18.10;80.20;;;;;;6248360;23;19991;-94
2022/05/12 09:27:19;;;;;;;3.75;1.45;;;18.20;79.90;;;;;;6241671;23;20003;-93
2022/05/12 09:29:52;;;;;;;3.28;1.50;;;18.30;79.40;;;;;;6208470;23;20000;-93
2022/05/12 09:32:45;;;;;;;2.75;1.48;;;18.40;79.20;;;;;;6231164;23;20004;-92
2022/05/12 09:35:28;;;;;;;2.85;1.20;;;18.40;78.90;;;;;;6224395;23;20422;-95
2022/05/12 09:38:03;;;;;;;2.92;1.25;;;18.50;78.60;;;;;;6227074;23;20083;-92
2022/05/12 09:40:39;;;;;;;2.25;1.30;;;18.60;78.40;;;;;;6227748;23;20034;-94
2022/05/12 09:43:29;;;;;;;3.47;1.10;;;18.70;77.70;;;;;;6226562;23;20091;-93
2022/05/12 09:46:33;;;;;;;;;;;;;;;;;;;;;
2022/05/12 09:49:46;;;;;;;3.55;1.40;;;18.80;77.20;;;;;;6250207;23;20027;-93
2022/05/12 09:52:49;;;;;;;2.42;1.10;;;18.80;76.60;;;;;;6105503;23;20061;-92
2022/05/12 09:55:43;;;;;;;;;;;;;;;;;;;;;
2022/05/12 09:58:59;;;;;;;2.45;1.20;;;18.80;75.30;;;;;;6136871;23;20030;-94
2022/05/12 10:01:56;;;;;;;3.47;1.17;;;18.70;74.50;;;;;;6222240;23;20027;-93
2022/05/12 10:07:55;;;;;;;2.53;0.93;;;18.80;73.50;;;;;;6250009;23;20011;-93
2022/05/12 10:49:06;;;;;;;;;;;;;;;;;;;;;
2022/05/12 10:52:19;;;;;;;;;;;;;;;;;;;;;
2022/05/12 11:03:04;;;;;;;;;;;;;;;;;;;;;
2022/05/12 11:20:10;;;;;;;;;;;;;;;;;;;;;
2022/05/12 11:40:46;;;;;;;;;;;;;;;;;;;;;
2022/05/12 11:46:53;;;;;;;;;;;;;;;;;;;;;
2022/05/12 12:17:24;;;;;;;;;;;;;;;;;;;;;
2022/05/12 12:34:56;;;;;;;2.67;1.00;;;20.60;59.20;;;;;;5899334;24;20158;-89
2022/05/12 13:13:55;;;;;;;;;;;;;;;;;;;;;
2022/05/12 13:33:40;;;;;;;2.35;0.90;;;21.00;58.20;;;;;;5820297;24;20082;-90
2022/05/12 13:36:54;;;;;;;;;;;;;;;;;;;;;
2022/05/12 13:50:47;;;;;;;;;;;;;;;;;;;;;
2022/05/12 13:54:08;;;;;;;;;;;;;;;;;;;;;
2022/05/12 14:07:23;;;;;;;1.42;0.60;;;21.10;58.10;;;;;;6096671;23;20043;-90
2022/05/12 14:31:57;;;;;;;;;;;;;;;;;;;;;
2022/05/12 14:53:08;;;;;;;2.92;1.00;;;21.30;56.40;;;;;;5953253;24;20092;-90
2022/05/12 15:20:26;;;;;;;;;;;;;;;;;;;;;
2022/05/12 16:03:25;;;;;;;;;;;;;;;;;;;;;
2022/05/12 16:26:26;;;;;;;2.13;1.30;;;21.30;57.00;;;;;;5900859;24;20095;-92
2022/05/12 21:41:15;;;;;;;2.63;0.70;;;15.20;71.10;;;;;;6274838;22;20016;-91
2022/05/12 22:03:32;;;;;;;;;;;;;;;;;;;;;
2022/05/12 22:09:59;;;;;;;;;;;;;;;;;;;;;
2022/05/12 22:12:58;;;;;;;;;;;;;;;;;;;;;
2022/05/12 22:16:13;;;;;;;;;;;;;;;;;;;;;
2022/05/12 22:19:19;;;;;;;1.30;0.93;;;14.90;71.30;;;;;;6001754;23;20091;-90
2022/05/12 22:33:36;;;;;;;;;;;;;;;;;;;;;
2022/05/12 22:55:34;;;;;;;;;;;14.50;72.60;;;;;;6157732;23;20466;-89
2022/05/12 22:58:47;;;;;;;1.73;0.68;;;14.50;72.50;;;;;;6130420;23;19972;-89
2022/05/12 23:02:11;;;;;;;1.63;0.50;;;14.50;72.50;;;;;;6145769;23;20010;-89
2022/05/12 23:08:47;;;;;;;2.72;0.80;;;14.50;72.40;;;;;;6211704;23;20004;-88
2022/05/12 23:11:46;;;;;;;2.53;0.85;;;14.50;72.50;;;;;;6119098;23;20020;-89
2022/05/12 23:25:00;;;;;;;;;;;;;;;;;;;;;
2022/05/12 23:28:13;;;;;;;;;;;;;;;;;;;;;
2022/05/12 23:37:28;;;;;;;;;;;;;;;;;;;;;
2022/05/12 23:47:25;;;;;;;;;;;;;;;;;;;;;
2022/05/12 23:57:13;;;;;;;;;;;;;;;;;;;;;
